createdAt,value
2019-03-04T00:00:36.886Z,98896.00
2019-03-04T00:03:10.213Z,98883.00
2019-03-04T00:05:43.072Z,98883.00
2019-03-04T00:08:15.832Z,98877.00
2019-03-04T00:10:48.670Z,98859.00
2019-03-04T00:13:21.531Z,98861.00
2019-03-04T00:15:54.382Z,98865.00
2019-03-04T00:18:27.201Z,98844.00
2019-03-04T00:21:00.057Z,98852.00
2019-03-04T00:23:32.932Z,98843.00
2019-03-04T00:26:05.833Z,98856.00
2019-03-04T00:28:38.654Z,98855.00
2019-03-04T00:31:11.505Z,98844.00
2019-03-04T00:33:44.379Z,98850.00
2019-03-04T00:36:17.281Z,98837.00
2019-03-04T00:38:50.110Z,98828.00
2019-03-04T00:41:22.949Z,98831.00
2019-03-04T00:43:55.727Z,98823.00
2019-03-04T00:46:28.564Z,98825.00
2019-03-04T00:49:01.370Z,98836.00
2019-03-04T00:51:34.188Z,98826.00
2019-03-04T00:54:06.996Z,98833.00
2019-03-04T00:56:39.880Z,98822.00
2019-03-04T00:59:12.706Z,98828.00
2019-03-04T01:01:45.548Z,98813.00
2019-03-04T01:04:18.340Z,98806.00
2019-03-04T01:06:51.146Z,98814.00
2019-03-04T01:09:23.963Z,98807.00
2019-03-04T01:11:56.788Z,98813.00
2019-03-04T01:14:29.583Z,98812.00
2019-03-04T01:17:02.453Z,98809.00
2019-03-04T01:19:35.280Z,98803.00
2019-03-04T01:22:08.106Z,98788.00
2019-03-04T01:24:40.953Z,98777.00
2019-03-04T01:27:13.820Z,98781.00
2019-03-04T01:29:46.612Z,98782.00
2019-03-04T01:32:19.454Z,98760.00
2019-03-04T01:34:52.295Z,98769.00
2019-03-04T01:37:25.144Z,98763.00
2019-03-04T01:39:57.978Z,98756.00
2019-03-04T01:42:30.823Z,98754.00
2019-03-04T01:45:04.914Z,98755.00
2019-03-04T01:47:37.770Z,98744.00
2019-03-04T01:50:13.548Z,98745.00
2019-03-04T01:52:46.711Z,98745.00
2019-03-04T01:55:20.697Z,98747.00
2019-03-04T01:57:56.293Z,98745.00
2019-03-04T02:00:29.141Z,98740.00
2019-03-04T02:03:01.944Z,98736.00
2019-03-04T02:05:34.764Z,98736.00
2019-03-04T02:08:08.731Z,98731.00
2019-03-04T02:10:41.519Z,98735.00
2019-03-04T02:13:14.315Z,98735.00
2019-03-04T02:15:47.144Z,98741.00
2019-03-04T02:18:19.964Z,98729.00
2019-03-04T02:20:53.976Z,98712.00
2019-03-04T02:23:26.860Z,98709.00
2019-03-04T02:26:17.552Z,98699.00
2019-03-04T02:28:50.456Z,98688.00
2019-03-04T02:31:23.386Z,98697.00
2019-03-04T02:33:56.226Z,98683.00
2019-03-04T02:36:29.079Z,98676.00
2019-03-04T02:39:02.119Z,98678.00
2019-03-04T02:41:36.842Z,98689.00
2019-03-04T02:44:09.672Z,98685.00
2019-03-04T02:46:42.493Z,98683.00
2019-03-04T02:49:15.316Z,98685.00
2019-03-04T02:51:48.696Z,98680.00
2019-03-04T02:54:21.554Z,98668.00
2019-03-04T02:56:54.387Z,98657.00
2019-03-04T02:59:27.227Z,98637.00
2019-03-04T03:02:00.035Z,98624.00
2019-03-04T03:04:32.947Z,98612.00
2019-03-04T03:07:05.825Z,98598.00
2019-03-04T03:09:38.650Z,98589.00
2019-03-04T03:12:11.505Z,98572.00
2019-03-04T03:14:44.344Z,98565.00
2019-03-04T03:17:17.214Z,98543.00
2019-03-04T03:19:50.031Z,98531.00
2019-03-04T03:22:22.884Z,98515.00
2019-03-04T03:24:55.717Z,98504.00
2019-03-04T03:27:28.557Z,98496.00
2019-03-04T03:30:01.464Z,98493.00
2019-03-04T03:32:35.457Z,98489.00
2019-03-04T03:35:09.192Z,98498.00
2019-03-04T03:37:42.225Z,98500.00
2019-03-04T03:40:15.170Z,98491.00
2019-03-04T03:42:48.024Z,98503.00
2019-03-04T03:45:20.845Z,98487.00
2019-03-04T03:47:53.720Z,98501.00
2019-03-04T03:50:26.521Z,98497.00
2019-03-04T03:52:59.402Z,98490.00
2019-03-04T03:55:32.231Z,98491.00
2019-03-04T03:58:05.058Z,98493.00
2019-03-04T04:00:37.889Z,98492.00
2019-03-04T04:03:10.737Z,98508.00
2019-03-04T04:05:43.542Z,98506.00
2019-03-04T04:08:16.374Z,98499.00
2019-03-04T04:10:49.179Z,98487.00
2019-03-04T04:13:21.993Z,98493.00
2019-03-04T04:15:54.869Z,98494.00
2019-03-04T04:18:27.710Z,98477.00
2019-03-04T04:21:00.521Z,98467.00
2019-03-04T04:23:33.398Z,98451.00
2019-03-04T04:26:19.851Z,98435.00
2019-03-04T04:29:01.393Z,98425.00
2019-03-04T04:31:34.255Z,98418.00
2019-03-04T04:34:07.113Z,98403.00
2019-03-04T04:36:39.910Z,98403.00
2019-03-04T04:39:12.724Z,98386.00
2019-03-04T04:41:45.652Z,98385.00
2019-03-04T04:44:18.541Z,98391.00
2019-03-04T04:46:56.591Z,98392.00
2019-03-04T04:49:31.743Z,98382.00
2019-03-04T04:52:04.568Z,98390.00
2019-03-04T04:54:37.370Z,98366.00
2019-03-04T04:57:10.189Z,98367.00
2019-03-04T04:59:42.994Z,98367.00
2019-03-04T05:02:15.816Z,98363.00
2019-03-04T05:04:48.656Z,98359.00
2019-03-04T05:07:21.523Z,98356.00
2019-03-04T05:09:54.576Z,98344.00
2019-03-04T05:12:27.407Z,98314.00
2019-03-04T05:15:00.332Z,98283.00
2019-03-04T05:17:33.226Z,98296.00
2019-03-04T05:20:12.451Z,98313.00
2019-03-04T05:22:45.259Z,98296.00
2019-03-04T05:25:18.095Z,98266.00
2019-03-04T05:27:50.964Z,98243.00
2019-03-04T05:30:24.285Z,98202.00
2019-03-04T05:32:58.121Z,98201.00
2019-03-04T05:35:30.965Z,98209.00
2019-03-04T05:38:03.803Z,98220.00
2019-03-04T05:40:36.657Z,98222.00
2019-03-04T05:43:09.478Z,98197.00
2019-03-04T05:45:42.298Z,98194.00
2019-03-04T05:48:15.165Z,98187.00
2019-03-04T05:50:47.979Z,98213.00
2019-03-04T05:53:21.919Z,98219.00
2019-03-04T05:55:54.772Z,98225.00
2019-03-04T05:58:27.565Z,98221.00
2019-03-04T06:01:24.846Z,98210.00
2019-03-04T06:04:03.847Z,98209.00
2019-03-04T06:06:59.790Z,98201.00
2019-03-04T06:09:32.627Z,98216.00
2019-03-04T06:12:05.418Z,98206.00
2019-03-04T06:14:38.292Z,98217.00
2019-03-04T06:17:11.090Z,98232.00
2019-03-04T06:19:44.103Z,98242.00
2019-03-04T06:22:17.052Z,98241.00
2019-03-04T06:24:49.885Z,98255.00
2019-03-04T06:27:22.681Z,98260.00
2019-03-04T06:29:55.583Z,98232.00
2019-03-04T06:32:28.389Z,98243.00
2019-03-04T06:35:01.234Z,98236.00
2019-03-04T06:37:34.028Z,98264.00
2019-03-04T06:40:09.617Z,98227.00
2019-03-04T06:42:43.447Z,98195.00
2019-03-04T06:45:16.408Z,98179.00
2019-03-04T06:47:49.189Z,98169.00
2019-03-04T06:50:48.223Z,98194.00
2019-03-04T06:53:31.757Z,98156.00
2019-03-04T06:56:32.070Z,98161.00
2019-03-04T06:59:29.747Z,98142.00
2019-03-04T07:02:09.155Z,98041.00
2019-03-04T07:05:45.966Z,98050.00
2019-03-04T07:09:14.878Z,98142.00
2019-03-04T07:11:52.427Z,98142.00
2019-03-04T07:14:25.287Z,98067.00
2019-03-04T07:16:58.074Z,98009.00
2019-03-04T07:19:34.065Z,98068.00
2019-03-04T07:22:06.918Z,98099.00
2019-03-04T07:24:39.776Z,98062.00
2019-03-04T07:27:12.843Z,98086.00
2019-03-04T07:29:45.709Z,98107.00
2019-03-04T07:32:18.546Z,98077.00
2019-03-04T07:34:51.526Z,98088.00
2019-03-04T07:37:24.342Z,98099.00
2019-03-04T07:39:57.245Z,98092.00
2019-03-04T07:42:31.312Z,98084.00
2019-03-04T07:45:05.626Z,98098.00
2019-03-04T07:47:38.585Z,98035.00
2019-03-04T07:50:11.528Z,98042.00
2019-03-04T07:52:44.355Z,98061.00
2019-03-04T07:55:17.219Z,98052.00
2019-03-04T07:57:50.047Z,98057.00
2019-03-04T08:00:22.878Z,98024.00
2019-03-04T08:02:55.726Z,98056.00
2019-03-04T08:05:28.578Z,98083.00
2019-03-04T08:08:01.678Z,98079.00
2019-03-04T08:11:01.335Z,98080.00
2019-03-04T08:13:52.707Z,98074.00
2019-03-04T08:16:25.572Z,98077.00
2019-03-04T08:18:58.430Z,98037.00
2019-03-04T08:21:31.409Z,98057.00
2019-03-04T08:24:04.295Z,98080.00
2019-03-04T08:26:37.126Z,98113.00
2019-03-04T08:29:10.371Z,98092.00
2019-03-04T08:31:43.304Z,98130.00
2019-03-04T08:34:16.184Z,98141.00
2019-03-04T08:36:49.925Z,98152.00
2019-03-04T08:39:23.020Z,98156.00
2019-03-04T08:41:55.936Z,98159.00
2019-03-04T08:44:30.999Z,98145.00
2019-03-04T08:47:03.477Z,98186.00
2019-03-04T08:49:36.339Z,98159.00
2019-03-04T08:52:09.215Z,98171.00
2019-03-04T08:54:42.050Z,98122.00
2019-03-04T08:57:15.915Z,98125.00
2019-03-04T08:59:48.801Z,98158.00
2019-03-04T09:02:21.617Z,98173.00
2019-03-04T09:04:54.604Z,98176.00
2019-03-04T09:07:27.433Z,98185.00
2019-03-04T09:10:00.419Z,98195.00
2019-03-04T09:12:33.273Z,98207.00
2019-03-04T09:15:07.494Z,98227.00
2019-03-04T09:17:40.744Z,98248.00
2019-03-04T09:20:14.184Z,98220.00
2019-03-04T09:22:47.137Z,98258.00
2019-03-04T09:25:35.941Z,98255.00
2019-03-04T09:28:10.732Z,98220.00
2019-03-04T09:30:43.595Z,98218.00
2019-03-04T09:33:16.458Z,98232.00
2019-03-04T09:35:49.308Z,98227.00
2019-03-04T09:38:23.241Z,98246.00
2019-03-04T09:40:56.100Z,98243.00
2019-03-04T09:43:28.999Z,98239.00
2019-03-04T09:46:01.877Z,98241.00
2019-03-04T09:48:35.571Z,98253.00
2019-03-04T09:51:08.413Z,98257.00
2019-03-04T09:53:43.083Z,98238.00
2019-03-04T09:56:16.094Z,98245.00
2019-03-04T09:58:49.076Z,98252.00
2019-03-04T10:01:48.138Z,98209.00
2019-03-04T10:05:22.211Z,98225.00
2019-03-04T10:08:43.409Z,98203.00
2019-03-04T10:12:02.608Z,98210.00
2019-03-04T10:15:49.023Z,98211.00
2019-03-04T10:19:23.901Z,98221.00
2019-03-04T10:22:46.948Z,98217.00
2019-03-04T10:26:03.058Z,98223.00
2019-03-04T10:29:17.514Z,98236.00
2019-03-04T10:32:53.876Z,98215.00
2019-03-04T10:36:00.270Z,98220.00
2019-03-04T10:39:17.833Z,98233.00
2019-03-04T10:43:00.925Z,98242.00
2019-03-04T10:46:17.568Z,98234.00
2019-03-04T10:48:50.443Z,98234.00
2019-03-04T10:51:23.372Z,98231.00
2019-03-04T10:53:56.207Z,98226.00
2019-03-04T10:56:29.049Z,98206.00
2019-03-04T10:59:01.924Z,98225.00
2019-03-04T11:01:34.923Z,98218.00
2019-03-04T11:04:07.829Z,98230.00
2019-03-04T11:06:40.648Z,98226.00
2019-03-04T11:09:14.417Z,98238.00
2019-03-04T11:11:47.388Z,98241.00
2019-03-04T11:14:20.320Z,98240.00
2019-03-04T11:16:53.158Z,98231.00
2019-03-04T11:19:26.125Z,98226.00
2019-03-04T11:21:58.975Z,98219.00
2019-03-04T11:24:33.781Z,98207.00
2019-03-04T11:27:06.857Z,98195.00
2019-03-04T11:29:40.312Z,98208.00
2019-03-04T11:32:13.273Z,98187.00
2019-03-04T11:34:46.160Z,98180.00
2019-03-04T11:37:19.016Z,98196.00
2019-03-04T11:39:58.703Z,98170.00
2019-03-04T11:42:31.604Z,98179.00
2019-03-04T11:45:08.783Z,98172.00
2019-03-04T11:47:41.740Z,98165.00
2019-03-04T11:50:14.626Z,98168.00
2019-03-04T11:52:47.786Z,98167.00
2019-03-04T11:55:21.672Z,98131.00
2019-03-04T11:57:54.547Z,98180.00
2019-03-04T12:00:35.827Z,98164.00
2019-03-04T12:03:09.415Z,98149.00
2019-03-04T12:05:42.402Z,98149.00
2019-03-04T12:08:15.242Z,98145.00
2019-03-04T12:10:48.090Z,98122.00
2019-03-04T12:13:20.979Z,98139.00
2019-03-04T12:15:53.920Z,98127.00
2019-03-04T12:18:26.883Z,98156.00
2019-03-04T12:21:00.503Z,98152.00
2019-03-04T12:23:33.449Z,98146.00
2019-03-04T12:26:06.354Z,98122.00
2019-03-04T12:28:39.185Z,98160.00
2019-03-04T12:31:12.060Z,98164.00
2019-03-04T12:33:45.009Z,98154.00
2019-03-04T12:36:17.883Z,98174.00
2019-03-04T12:38:50.744Z,98164.00
2019-03-04T12:41:23.593Z,98161.00
2019-03-04T12:43:56.406Z,98157.00
2019-03-04T12:46:29.281Z,98152.00
2019-03-04T12:49:02.264Z,98151.00
2019-03-04T12:51:35.106Z,98148.00
2019-03-04T12:54:07.949Z,98151.00
2019-03-04T12:56:40.921Z,98154.00
2019-03-04T12:59:13.759Z,98171.00
2019-03-04T13:01:46.644Z,98190.00
2019-03-04T13:04:19.460Z,98242.00
2019-03-04T13:06:52.336Z,98182.00
2019-03-04T13:09:25.287Z,98190.00
2019-03-04T13:11:58.210Z,98172.00
2019-03-04T13:14:31.082Z,98184.00
2019-03-04T13:17:04.072Z,98186.00
2019-03-04T13:19:37.091Z,98207.00
2019-03-04T13:22:09.974Z,98199.00
2019-03-04T13:24:43.891Z,98198.00
2019-03-04T13:27:23.503Z,98216.00
2019-03-04T13:29:51.507Z,98221.00
2019-03-04T13:32:24.479Z,98218.00
2019-03-04T13:34:57.324Z,98231.00
2019-03-04T13:37:30.144Z,98247.00
2019-03-04T13:40:04.327Z,98236.00
2019-03-04T13:42:37.217Z,98238.00
2019-03-04T13:45:12.164Z,98236.00
2019-03-04T13:47:47.067Z,98216.00
2019-03-04T13:50:21.422Z,98247.00
2019-03-04T13:52:54.870Z,98247.00
2019-03-04T13:55:27.738Z,98237.00
2019-03-04T13:58:00.604Z,98259.00
2019-03-04T14:00:34.096Z,98261.00
2019-03-04T14:03:07.233Z,98259.00
2019-03-04T14:05:40.100Z,98268.00
2019-03-04T14:08:13.089Z,98239.00
2019-03-04T14:10:46.071Z,98248.00
2019-03-04T14:13:18.990Z,98257.00
2019-03-04T14:15:51.854Z,98238.00
2019-03-04T14:18:24.919Z,98257.00
2019-03-04T14:20:57.783Z,98263.00
2019-03-04T14:23:30.671Z,98254.00
2019-03-04T14:26:04.071Z,98265.00
2019-03-04T14:28:37.104Z,98254.00
2019-03-04T14:31:09.936Z,98264.00
2019-03-04T14:33:42.778Z,98275.00
2019-03-04T14:36:15.599Z,98262.00
2019-03-04T14:38:48.477Z,98275.00
2019-03-04T14:41:21.319Z,98273.00
2019-03-04T14:43:57.051Z,98266.00
2019-03-04T14:46:29.936Z,98265.00
2019-03-04T14:49:03.908Z,98284.00
2019-03-04T14:51:36.766Z,98305.00
2019-03-04T14:54:09.663Z,98308.00
2019-03-04T14:56:42.483Z,98325.00
2019-03-04T14:59:15.383Z,98325.00
2019-03-04T15:01:48.260Z,98328.00
2019-03-04T15:04:21.082Z,98355.00
2019-03-04T15:06:54.032Z,98382.00
2019-03-04T15:09:26.876Z,98394.00
2019-03-04T15:11:59.755Z,98412.00
2019-03-04T15:14:32.617Z,98428.00
2019-03-04T15:17:05.486Z,98432.00
2019-03-04T15:19:38.436Z,98430.00
2019-03-04T15:22:11.381Z,98425.00
2019-03-04T15:24:44.209Z,98446.00
2019-03-04T15:27:17.170Z,98455.00
2019-03-04T15:29:50.020Z,98458.00
2019-03-04T15:32:22.858Z,98457.00
2019-03-04T15:34:55.832Z,98464.00
2019-03-04T15:37:28.815Z,98467.00
2019-03-04T15:40:01.625Z,98472.00
2019-03-04T15:42:36.316Z,98469.00
2019-03-04T15:45:09.954Z,98476.00
2019-03-04T15:47:43.071Z,98476.00
2019-03-04T15:50:16.123Z,98480.00
2019-03-04T15:52:49.407Z,98488.00
2019-03-04T15:55:22.631Z,98487.00
2019-03-04T15:57:55.483Z,98490.00
2019-03-04T16:00:28.503Z,98494.00
2019-03-04T16:03:01.466Z,98490.00
2019-03-04T16:05:34.549Z,98508.00
2019-03-04T16:08:08.209Z,98516.00
2019-03-04T16:10:41.677Z,98511.00
2019-03-04T16:13:14.818Z,98521.00
2019-03-04T16:15:47.772Z,98529.00
2019-03-04T16:18:20.755Z,98527.00
2019-03-04T16:20:53.599Z,98537.00
2019-03-04T16:23:26.540Z,98547.00
2019-03-04T16:26:07.509Z,98558.00
2019-03-04T16:28:40.987Z,98563.00
2019-03-04T16:31:13.867Z,98575.00
2019-03-04T16:33:46.762Z,98575.00
2019-03-04T16:36:19.876Z,98584.00
2019-03-04T16:38:52.775Z,98597.00
2019-03-04T16:41:25.636Z,98607.00
2019-03-04T16:43:58.527Z,98605.00
2019-03-04T16:46:31.429Z,98622.00
2019-03-04T16:49:04.814Z,98621.00
2019-03-04T16:51:37.696Z,98635.00
2019-03-04T16:54:10.549Z,98640.00
2019-03-04T16:56:43.392Z,98650.00
2019-03-04T16:59:18.567Z,98655.00
2019-03-04T17:01:51.447Z,98662.00
2019-03-04T17:04:24.349Z,98670.00
2019-03-04T17:06:57.217Z,98675.00
2019-03-04T17:09:30.309Z,98686.00
2019-03-04T17:12:05.102Z,98686.00
2019-03-04T17:14:38.089Z,98698.00
2019-03-04T17:17:12.918Z,98708.00
2019-03-04T17:19:45.757Z,98704.00
2019-03-04T17:22:18.642Z,98718.00
2019-03-04T17:24:51.884Z,98733.00
2019-03-04T17:27:24.720Z,98722.00
2019-03-04T17:29:57.629Z,98742.00
2019-03-04T17:32:30.477Z,98745.00
2019-03-04T17:35:04.432Z,98749.00
2019-03-04T17:37:37.403Z,98755.00
2019-03-04T17:40:11.530Z,98763.00
2019-03-04T17:42:44.384Z,98754.00
2019-03-04T17:45:17.657Z,98768.00
2019-03-04T17:47:50.807Z,98757.00
2019-03-04T17:50:31.055Z,98766.00
2019-03-04T17:53:05.947Z,98764.00
2019-03-04T17:55:38.938Z,98774.00
2019-03-04T17:58:12.437Z,98765.00
2019-03-04T18:00:51.065Z,98766.00
2019-03-04T18:03:23.947Z,98767.00
2019-03-04T18:05:58.077Z,98776.00
2019-03-04T18:08:32.314Z,98774.00
2019-03-04T18:11:05.144Z,98794.00
2019-03-04T18:13:38.833Z,98793.00
2019-03-04T18:16:11.766Z,98794.00
2019-03-04T18:18:44.670Z,98794.00
2019-03-04T18:21:17.692Z,98798.00
2019-03-04T18:23:50.813Z,98810.00
2019-03-04T18:26:39.905Z,98804.00
2019-03-04T18:29:47.446Z,98805.00
2019-03-04T18:33:29.315Z,98817.00
2019-03-04T18:36:58.164Z,98819.00
2019-03-04T18:40:02.041Z,98826.00
2019-03-04T18:43:25.796Z,98838.00
2019-03-04T18:46:56.835Z,98842.00
2019-03-04T18:49:29.786Z,98843.00
2019-03-04T18:52:02.774Z,98854.00
2019-03-04T18:54:35.773Z,98864.00
2019-03-04T18:57:08.802Z,98857.00
2019-03-04T18:59:41.691Z,98870.00
2019-03-04T19:02:14.967Z,98870.00
2019-03-04T19:04:48.001Z,98876.00
2019-03-04T19:07:21.053Z,98880.00
2019-03-04T19:09:53.926Z,98878.00
2019-03-04T19:12:27.042Z,98875.00
2019-03-04T19:14:59.889Z,98881.00
2019-03-04T19:17:33.738Z,98896.00
2019-03-04T19:20:11.321Z,98896.00
2019-03-04T19:22:46.071Z,98896.00
2019-03-04T19:25:18.989Z,98895.00
2019-03-04T19:27:51.983Z,98904.00
2019-03-04T19:30:24.978Z,98908.00
2019-03-04T19:32:58.066Z,98916.00
2019-03-04T19:35:30.985Z,98922.00
2019-03-04T19:38:03.851Z,98930.00
2019-03-04T19:40:37.269Z,98941.00
2019-03-04T19:43:10.256Z,98936.00
2019-03-04T19:45:43.465Z,98944.00
2019-03-04T19:48:16.627Z,98953.00
2019-03-04T19:50:49.550Z,98951.00
2019-03-04T19:53:22.593Z,98959.00
2019-03-04T19:55:55.509Z,98951.00
2019-03-04T19:58:28.428Z,98951.00
2019-03-04T20:01:04.097Z,98954.00
2019-03-04T20:03:37.053Z,98963.00
2019-03-04T20:06:10.788Z,98954.00
2019-03-04T20:08:44.009Z,98959.00
2019-03-04T20:11:18.374Z,98972.00
2019-03-04T20:13:51.538Z,98969.00
2019-03-04T20:16:24.602Z,98971.00
2019-03-04T20:18:57.584Z,98969.00
2019-03-04T20:21:30.563Z,98967.00
2019-03-04T20:24:03.625Z,98959.00
2019-03-04T20:26:36.501Z,98972.00
2019-03-04T20:29:09.411Z,98974.00
2019-03-04T20:31:42.311Z,98980.00
2019-03-04T20:34:15.326Z,98984.00
2019-03-04T20:36:48.399Z,98984.00
2019-03-04T20:39:21.800Z,98990.00
2019-03-04T20:41:54.768Z,98993.00
2019-03-04T20:44:27.739Z,98999.00
2019-03-04T20:47:00.766Z,98991.00
2019-03-04T20:49:33.641Z,98990.00
2019-03-04T20:52:06.538Z,98981.00
2019-03-04T20:54:39.509Z,98975.00
2019-03-04T20:57:12.560Z,98970.00
2019-03-04T20:59:45.525Z,98986.00
2019-03-04T21:02:18.456Z,98975.00
2019-03-04T21:04:51.445Z,98972.00
2019-03-04T21:07:24.584Z,98974.00
2019-03-04T21:09:59.874Z,98977.00
2019-03-04T21:12:32.760Z,98984.00
2019-03-04T21:15:07.312Z,98988.00
2019-03-04T21:17:40.373Z,98988.00
2019-03-04T21:20:14.690Z,98993.00
2019-03-04T21:22:47.684Z,98998.00
2019-03-04T21:25:39.879Z,99003.00
2019-03-04T21:28:28.145Z,99012.00
2019-03-04T21:31:32.917Z,99004.00
2019-03-04T21:34:56.666Z,99013.00
2019-03-04T21:37:35.004Z,99009.00
2019-03-04T21:40:38.744Z,99010.00
2019-03-04T21:43:22.068Z,99014.00
2019-03-04T21:47:07.461Z,99023.00
2019-03-04T21:49:46.055Z,99015.00
2019-03-04T21:52:38.475Z,99017.00
2019-03-04T21:55:25.101Z,99014.00
2019-03-04T21:57:59.004Z,99016.00
2019-03-04T22:00:39.535Z,99024.00
2019-03-04T22:03:22.944Z,99030.00
2019-03-04T22:05:57.210Z,99037.00
2019-03-04T22:08:30.643Z,99044.00
2019-03-04T22:11:03.900Z,99044.00
2019-03-04T22:13:36.982Z,99042.00
2019-03-04T22:16:09.934Z,99041.00
2019-03-04T22:18:42.960Z,99047.00
2019-03-04T22:21:17.173Z,99048.00
2019-03-04T22:23:50.067Z,99040.00
2019-03-04T22:26:22.986Z,99058.00
2019-03-04T22:28:55.865Z,99061.00
2019-03-04T22:31:28.705Z,99065.00
2019-03-04T22:34:01.528Z,99052.00
2019-03-04T22:36:34.378Z,99050.00
2019-03-04T22:39:07.765Z,99054.00
2019-03-04T22:41:42.639Z,99054.00
2019-03-04T22:44:15.677Z,99053.00
2019-03-04T22:46:48.518Z,99047.00
2019-03-04T22:49:21.455Z,99058.00
2019-03-04T22:51:54.419Z,99071.00
2019-03-04T22:54:27.244Z,99064.00
2019-03-04T22:57:00.059Z,99071.00
2019-03-04T22:59:33.027Z,99066.00
2019-03-04T23:02:06.816Z,99080.00
2019-03-04T23:04:53.871Z,99088.00
2019-03-04T23:07:40.008Z,99098.00
2019-03-04T23:10:44.757Z,99100.00
2019-03-04T23:14:08.439Z,99109.00
2019-03-04T23:16:41.226Z,99135.00
2019-03-04T23:19:14.018Z,99137.00
2019-03-04T23:21:46.944Z,99124.00
2019-03-04T23:24:20.329Z,99115.00
2019-03-04T23:26:53.143Z,99129.00
2019-03-04T23:29:26.003Z,99127.00
2019-03-04T23:31:58.857Z,99118.00
2019-03-04T23:34:31.786Z,99146.00
2019-03-04T23:37:04.631Z,99124.00
2019-03-04T23:39:38.603Z,99133.00
2019-03-04T23:42:11.466Z,99130.00
2019-03-04T23:44:44.340Z,99131.00
2019-03-04T23:47:17.194Z,99138.00
2019-03-04T23:50:21.064Z,99132.00
2019-03-04T23:52:53.894Z,99140.00
2019-03-04T23:55:26.750Z,99146.00
2019-03-04T23:57:59.619Z,99144.00
